sensor_id;sensor_type;location;lat;lon;timestamp;pressure;altitude;pressure_sealevel;temperature
79714;BMP280;69206;51.420;5.400;2023-04-15T00:01:57;100724.75;;;9.91
79714;BMP280;69206;51.420;5.400;2023-04-15T00:04:22;100729.94;;;9.81
79714;BMP280;69206;51.420;5.400;2023-04-15T00:06:51;100729.94;;;9.72
79714;BMP280;69206;51.420;5.400;2023-04-15T00:09:18;100731.91;;;9.70
79714;BMP280;69206;51.420;5.400;2023-04-15T00:11:44;100730.34;;;9.67
79714;BMP280;69206;51.420;5.400;2023-04-15T00:14:11;100716.69;;;9.64
79714;BMP280;69206;51.420;5.400;2023-04-15T00:16:36;100688.25;;;9.50
79714;BMP280;69206;51.420;5.400;2023-04-15T00:19:02;100720.16;;;9.74
79714;BMP280;69206;51.420;5.400;2023-04-15T00:21:27;100721.41;;;9.70
79714;BMP280;69206;51.420;5.400;2023-04-15T00:23:53;100721.50;;;9.59
79714;BMP280;69206;51.420;5.400;2023-04-15T00:26:19;100717.81;;;9.61
79714;BMP280;69206;51.420;5.400;2023-04-15T00:28:45;100693.03;;;9.45
79714;BMP280;69206;51.420;5.400;2023-04-15T00:31:11;100718.44;;;9.54
79714;BMP280;69206;51.420;5.400;2023-04-15T00:33:36;100723.28;;;9.49
79714;BMP280;69206;51.420;5.400;2023-04-15T00:36:02;100725.09;;;9.58
79714;BMP280;69206;51.420;5.400;2023-04-15T00:38:28;100723.06;;;9.61
79714;BMP280;69206;51.420;5.400;2023-04-15T00:40:54;100689.28;;;9.38
79714;BMP280;69206;51.420;5.400;2023-04-15T00:43:20;100719.22;;;9.45
79714;BMP280;69206;51.420;5.400;2023-04-15T00:45:46;100726.72;;;9.49
79714;BMP280;69206;51.420;5.400;2023-04-15T00:48:12;100721.72;;;9.46
79714;BMP280;69206;51.420;5.400;2023-04-15T00:50:37;100702.81;;;9.33
79714;BMP280;69206;51.420;5.400;2023-04-15T00:53:03;100735.50;;;9.39
79714;BMP280;69206;51.420;5.400;2023-04-15T00:55:29;100734.28;;;9.43
79714;BMP280;69206;51.420;5.400;2023-04-15T00:57:55;100735.28;;;9.51
79714;BMP280;69206;51.420;5.400;2023-04-15T01:00:21;100729.31;;;9.49
79714;BMP280;69206;51.420;5.400;2023-04-15T01:02:47;100724.19;;;9.38
79714;BMP280;69206;51.420;5.400;2023-04-15T01:05:13;100721.28;;;9.32
79714;BMP280;69206;51.420;5.400;2023-04-15T01:07:41;100726.75;;;9.29
79714;BMP280;69206;51.420;5.400;2023-04-15T01:10:07;100733.25;;;9.25
79714;BMP280;69206;51.420;5.400;2023-04-15T01:12:33;100727.69;;;9.28
79714;BMP280;69206;51.420;5.400;2023-04-15T01:15:00;100724.22;;;9.18
79714;BMP280;69206;51.420;5.400;2023-04-15T01:17:26;100725.50;;;9.23
79714;BMP280;69206;51.420;5.400;2023-04-15T01:19:54;100731.13;;;9.19
79714;BMP280;69206;51.420;5.400;2023-04-15T01:22:20;100724.03;;;9.10
79714;BMP280;69206;51.420;5.400;2023-04-15T01:24:50;100725.72;;;9.11
79714;BMP280;69206;51.420;5.400;2023-04-15T01:27:20;100728.84;;;9.05
79714;BMP280;69206;51.420;5.400;2023-04-15T01:29:45;100723.75;;;9.03
79714;BMP280;69206;51.420;5.400;2023-04-15T01:32:11;100731.41;;;9.16
79714;BMP280;69206;51.420;5.400;2023-04-15T01:34:36;100724.91;;;9.20
79714;BMP280;69206;51.420;5.400;2023-04-15T01:37:01;100727.78;;;9.07
79714;BMP280;69206;51.420;5.400;2023-04-15T01:39:27;100718.31;;;9.16
79714;BMP280;69206;51.420;5.400;2023-04-15T01:41:52;100723.66;;;9.14
79714;BMP280;69206;51.420;5.400;2023-04-15T01:44:18;100703.78;;;9.02
79714;BMP280;69206;51.420;5.400;2023-04-15T01:46:43;100722.00;;;9.13
79714;BMP280;69206;51.420;5.400;2023-04-15T01:49:08;100696.72;;;9.03
79714;BMP280;69206;51.420;5.400;2023-04-15T01:51:34;100724.50;;;9.15
79714;BMP280;69206;51.420;5.400;2023-04-15T01:53:59;100730.50;;;9.06
79714;BMP280;69206;51.420;5.400;2023-04-15T01:56:24;100715.72;;;8.95
79714;BMP280;69206;51.420;5.400;2023-04-15T01:58:50;100721.13;;;9.03
79714;BMP280;69206;51.420;5.400;2023-04-15T02:01:16;100723.78;;;9.13
79714;BMP280;69206;51.420;5.400;2023-04-15T02:03:44;100729.66;;;9.05
79714;BMP280;69206;51.420;5.400;2023-04-15T02:06:09;100734.09;;;9.05
79714;BMP280;69206;51.420;5.400;2023-04-15T02:08:35;100728.38;;;9.00
79714;BMP280;69206;51.420;5.400;2023-04-15T02:11:00;100724.59;;;9.04
79714;BMP280;69206;51.420;5.400;2023-04-15T02:13:26;100734.84;;;8.96
79714;BMP280;69206;51.420;5.400;2023-04-15T02:15:53;100735.53;;;8.88
79714;BMP280;69206;51.420;5.400;2023-04-15T02:18:19;100741.81;;;8.86
79714;BMP280;69206;51.420;5.400;2023-04-15T02:20:44;100737.84;;;8.91
79714;BMP280;69206;51.420;5.400;2023-04-15T02:23:11;100733.44;;;8.92
79714;BMP280;69206;51.420;5.400;2023-04-15T02:25:37;100740.34;;;8.93
79714;BMP280;69206;51.420;5.400;2023-04-15T02:28:05;100739.91;;;8.88
79714;BMP280;69206;51.420;5.400;2023-04-15T02:30:31;100716.31;;;8.78
79714;BMP280;69206;51.420;5.400;2023-04-15T02:32:58;100741.34;;;8.81
79714;BMP280;69206;51.420;5.400;2023-04-15T02:35:24;100747.16;;;8.84
79714;BMP280;69206;51.420;5.400;2023-04-15T02:37:50;100757.63;;;8.84
79714;BMP280;69206;51.420;5.400;2023-04-15T02:40:16;100746.88;;;8.78
79714;BMP280;69206;51.420;5.400;2023-04-15T02:42:41;100750.91;;;8.71
79714;BMP280;69206;51.420;5.400;2023-04-15T02:45:08;100749.31;;;8.70
79714;BMP280;69206;51.420;5.400;2023-04-15T02:47:34;100762.50;;;8.68
79714;BMP280;69206;51.420;5.400;2023-04-15T02:50:05;100758.66;;;8.72
79714;BMP280;69206;51.420;5.400;2023-04-15T02:52:31;100761.88;;;8.65
79714;BMP280;69206;51.420;5.400;2023-04-15T02:54:56;100740.06;;;8.55
79714;BMP280;69206;51.420;5.400;2023-04-15T02:57:26;100751.97;;;8.59
79714;BMP280;69206;51.420;5.400;2023-04-15T02:59:53;100763.72;;;8.53
79714;BMP280;69206;51.420;5.400;2023-04-15T03:02:18;100766.97;;;8.46
79714;BMP280;69206;51.420;5.400;2023-04-15T03:04:43;100767.13;;;8.33
79714;BMP280;69206;51.420;5.400;2023-04-15T03:07:09;100762.00;;;8.43
79714;BMP280;69206;51.420;5.400;2023-04-15T03:09:34;100767.13;;;8.33
79714;BMP280;69206;51.420;5.400;2023-04-15T03:12:00;100756.97;;;8.19
79714;BMP280;69206;51.420;5.400;2023-04-15T03:14:26;100760.41;;;8.20
79714;BMP280;69206;51.420;5.400;2023-04-15T03:16:51;100765.34;;;8.34
79714;BMP280;69206;51.420;5.400;2023-04-15T03:19:16;100761.56;;;8.27
79714;BMP280;69206;51.420;5.400;2023-04-15T03:21:42;100763.03;;;8.09
79714;BMP280;69206;51.420;5.400;2023-04-15T03:24:07;100768.50;;;8.06
79714;BMP280;69206;51.420;5.400;2023-04-15T03:26:32;100757.81;;;8.09
79714;BMP280;69206;51.420;5.400;2023-04-15T03:28:58;100763.91;;;8.09
79714;BMP280;69206;51.420;5.400;2023-04-15T03:31:23;100773.72;;;8.06
79714;BMP280;69206;51.420;5.400;2023-04-15T03:33:49;100752.38;;;7.90
79714;BMP280;69206;51.420;5.400;2023-04-15T03:36:15;100778.72;;;8.09
79714;BMP280;69206;51.420;5.400;2023-04-15T03:38:41;100787.44;;;7.98
79714;BMP280;69206;51.420;5.400;2023-04-15T03:41:06;100778.13;;;7.94
79714;BMP280;69206;51.420;5.400;2023-04-15T03:43:32;100786.59;;;7.98
79714;BMP280;69206;51.420;5.400;2023-04-15T03:45:57;100786.09;;;8.04
79714;BMP280;69206;51.420;5.400;2023-04-15T03:48:23;100800.63;;;7.97
79714;BMP280;69206;51.420;5.400;2023-04-15T03:50:48;100786.09;;;7.82
79714;BMP280;69206;51.420;5.400;2023-04-15T03:53:14;100797.50;;;7.70
79714;BMP280;69206;51.420;5.400;2023-04-15T03:55:39;100796.00;;;7.67
79714;BMP280;69206;51.420;5.400;2023-04-15T03:58:05;100797.28;;;7.84
79714;BMP280;69206;51.420;5.400;2023-04-15T04:00:30;100803.19;;;7.86
79714;BMP280;69206;51.420;5.400;2023-04-15T04:02:56;100800.38;;;7.89
79714;BMP280;69206;51.420;5.400;2023-04-15T04:05:21;100803.47;;;7.83
79714;BMP280;69206;51.420;5.400;2023-04-15T04:07:47;100781.81;;;7.48
79714;BMP280;69206;51.420;5.400;2023-04-15T04:10:12;100798.09;;;7.62
79714;BMP280;69206;51.420;5.400;2023-04-15T04:12:38;100816.84;;;7.56
79714;BMP280;69206;51.420;5.400;2023-04-15T04:15:04;100820.28;;;7.57
79714;BMP280;69206;51.420;5.400;2023-04-15T04:17:29;100823.13;;;7.54
79714;BMP280;69206;51.420;5.400;2023-04-15T04:19:54;100805.94;;;7.62
79714;BMP280;69206;51.420;5.400;2023-04-15T04:22:23;100823.72;;;7.57
79714;BMP280;69206;51.420;5.400;2023-04-15T04:24:49;100811.03;;;7.42
79714;BMP280;69206;51.420;5.400;2023-04-15T04:27:14;100821.47;;;7.31
79714;BMP280;69206;51.420;5.400;2023-04-15T04:29:40;100838.06;;;7.41
79714;BMP280;69206;51.420;5.400;2023-04-15T04:32:05;100840.66;;;7.41
79714;BMP280;69206;51.420;5.400;2023-04-15T04:34:31;100849.09;;;7.33
79714;BMP280;69206;51.420;5.400;2023-04-15T04:36:56;100855.00;;;7.35
79714;BMP280;69206;51.420;5.400;2023-04-15T04:39:22;100854.59;;;7.52
79714;BMP280;69206;51.420;5.400;2023-04-15T04:41:48;100853.78;;;7.52
79714;BMP280;69206;51.420;5.400;2023-04-15T04:44:14;100862.28;;;7.43
79714;BMP280;69206;51.420;5.400;2023-04-15T04:46:39;100864.63;;;7.35
79714;BMP280;69206;51.420;5.400;2023-04-15T04:49:04;100866.97;;;7.27
79714;BMP280;69206;51.420;5.400;2023-04-15T04:51:30;100873.56;;;7.43
79714;BMP280;69206;51.420;5.400;2023-04-15T04:53:55;100838.22;;;7.16
79714;BMP280;69206;51.420;5.400;2023-04-15T04:56:21;100875.00;;;7.24
79714;BMP280;69206;51.420;5.400;2023-04-15T04:58:46;100888.06;;;7.24
79714;BMP280;69206;51.420;5.400;2023-04-15T05:01:12;100887.16;;;7.36
79714;BMP280;69206;51.420;5.400;2023-04-15T05:03:37;100886.66;;;7.20
79714;BMP280;69206;51.420;5.400;2023-04-15T05:06:03;100895.28;;;7.44
79714;BMP280;69206;51.420;5.400;2023-04-15T05:08:30;100891.78;;;7.32
79714;BMP280;69206;51.420;5.400;2023-04-15T05:10:55;100897.19;;;7.42
79714;BMP280;69206;51.420;5.400;2023-04-15T05:13:21;100896.88;;;7.68
79714;BMP280;69206;51.420;5.400;2023-04-15T05:15:46;100907.00;;;7.38
79714;BMP280;69206;51.420;5.400;2023-04-15T05:18:12;100909.72;;;7.37
79714;BMP280;69206;51.420;5.400;2023-04-15T05:20:37;100910.03;;;7.56
79714;BMP280;69206;51.420;5.400;2023-04-15T05:23:03;100916.78;;;7.58
79714;BMP280;69206;51.420;5.400;2023-04-15T05:25:28;100915.06;;;7.81
79714;BMP280;69206;51.420;5.400;2023-04-15T05:27:53;100918.84;;;7.66
79714;BMP280;69206;51.420;5.400;2023-04-15T05:30:19;100925.59;;;7.68
79714;BMP280;69206;51.420;5.400;2023-04-15T05:32:45;100926.88;;;7.52
79714;BMP280;69206;51.420;5.400;2023-04-15T05:35:10;100938.03;;;7.54
79714;BMP280;69206;51.420;5.400;2023-04-15T05:37:36;100938.88;;;7.54
79714;BMP280;69206;51.420;5.400;2023-04-15T05:40:02;100920.91;;;7.50
79714;BMP280;69206;51.420;5.400;2023-04-15T05:42:28;100941.16;;;7.70
79714;BMP280;69206;51.420;5.400;2023-04-15T05:44:54;100950.88;;;7.79
79714;BMP280;69206;51.420;5.400;2023-04-15T05:47:19;100952.84;;;7.88
79714;BMP280;69206;51.420;5.400;2023-04-15T05:49:45;100967.75;;;7.75
79714;BMP280;69206;51.420;5.400;2023-04-15T05:52:10;100972.78;;;7.78
79714;BMP280;69206;51.420;5.400;2023-04-15T05:54:36;100973.75;;;7.88
79714;BMP280;69206;51.420;5.400;2023-04-15T05:57:01;100983.00;;;8.03
79714;BMP280;69206;51.420;5.400;2023-04-15T05:59:26;100980.78;;;7.98
79714;BMP280;69206;51.420;5.400;2023-04-15T06:01:52;100982.78;;;8.06
79714;BMP280;69206;51.420;5.400;2023-04-15T06:04:18;100979.38;;;8.16
79714;BMP280;69206;51.420;5.400;2023-04-15T06:06:43;100979.13;;;8.08
79714;BMP280;69206;51.420;5.400;2023-04-15T06:09:09;100983.44;;;8.20
79714;BMP280;69206;51.420;5.400;2023-04-15T06:11:34;100989.72;;;8.29
79714;BMP280;69206;51.420;5.400;2023-04-15T06:13:59;100985.78;;;8.45
79714;BMP280;69206;51.420;5.400;2023-04-15T06:16:25;101003.19;;;8.57
79714;BMP280;69206;51.420;5.400;2023-04-15T06:18:51;101008.28;;;8.59
79714;BMP280;69206;51.420;5.400;2023-04-15T06:21:16;101014.69;;;8.88
79714;BMP280;69206;51.420;5.400;2023-04-15T06:23:42;101018.19;;;9.09
79714;BMP280;69206;51.420;5.400;2023-04-15T06:26:07;101016.97;;;9.24
79714;BMP280;69206;51.420;5.400;2023-04-15T06:28:33;101009.56;;;9.29
79714;BMP280;69206;51.420;5.400;2023-04-15T06:30:58;101023.72;;;9.58
79714;BMP280;69206;51.420;5.400;2023-04-15T06:33:24;101026.22;;;9.80
79714;BMP280;69206;51.420;5.400;2023-04-15T06:35:49;101030.22;;;9.95
79714;BMP280;69206;51.420;5.400;2023-04-15T06:38:15;101021.66;;;9.93
79714;BMP280;69206;51.420;5.400;2023-04-15T06:40:40;101034.50;;;10.16
79714;BMP280;69206;51.420;5.400;2023-04-15T06:43:06;101043.47;;;10.44
79714;BMP280;69206;51.420;5.400;2023-04-15T06:45:32;101029.44;;;10.64
79714;BMP280;69206;51.420;5.400;2023-04-15T06:47:57;101046.94;;;10.84
79714;BMP280;69206;51.420;5.400;2023-04-15T06:50:22;101045.06;;;11.04
79714;BMP280;69206;51.420;5.400;2023-04-15T06:52:48;101050.44;;;11.31
79714;BMP280;69206;51.420;5.400;2023-04-15T06:55:14;101048.38;;;11.54
79714;BMP280;69206;51.420;5.400;2023-04-15T06:57:39;101055.59;;;11.52
79714;BMP280;69206;51.420;5.400;2023-04-15T07:00:05;101059.16;;;11.60
79714;BMP280;69206;51.420;5.400;2023-04-15T07:02:31;101070.09;;;11.46
79714;BMP280;69206;51.420;5.400;2023-04-15T07:04:57;101078.94;;;11.45
79714;BMP280;69206;51.420;5.400;2023-04-15T07:07:22;101080.19;;;11.60
79714;BMP280;69206;51.420;5.400;2023-04-15T07:10:22;101074.44;;;11.66
79714;BMP280;69206;51.420;5.400;2023-04-15T07:12:48;101093.34;;;11.70
79714;BMP280;69206;51.420;5.400;2023-04-15T07:15:15;101086.22;;;12.18
79714;BMP280;69206;51.420;5.400;2023-04-15T07:17:41;101090.78;;;12.25
79714;BMP280;69206;51.420;5.400;2023-04-15T07:20:08;101076.34;;;12.29
79714;BMP280;69206;51.420;5.400;2023-04-15T07:22:33;101099.00;;;12.76
79714;BMP280;69206;51.420;5.400;2023-04-15T07:24:59;101099.25;;;13.10
79714;BMP280;69206;51.420;5.400;2023-04-15T07:27:25;101106.25;;;13.01
79714;BMP280;69206;51.420;5.400;2023-04-15T07:29:51;101108.31;;;12.98
79714;BMP280;69206;51.420;5.400;2023-04-15T07:32:17;101103.53;;;13.28
79714;BMP280;69206;51.420;5.400;2023-04-15T07:34:43;101102.03;;;13.61
79714;BMP280;69206;51.420;5.400;2023-04-15T07:37:08;101089.47;;;14.23
79714;BMP280;69206;51.420;5.400;2023-04-15T07:39:34;101109.59;;;14.99
79714;BMP280;69206;51.420;5.400;2023-04-15T07:42:00;101119.81;;;15.02
79714;BMP280;69206;51.420;5.400;2023-04-15T07:44:26;101116.56;;;15.32
79714;BMP280;69206;51.420;5.400;2023-04-15T07:46:51;101118.38;;;15.39
79714;BMP280;69206;51.420;5.400;2023-04-15T07:49:17;101127.91;;;15.00
79714;BMP280;69206;51.420;5.400;2023-04-15T07:51:43;101129.56;;;14.60
79714;BMP280;69206;51.420;5.400;2023-04-15T07:54:09;101118.66;;;14.96
79714;BMP280;69206;51.420;5.400;2023-04-15T07:56:34;101128.16;;;15.47
79714;BMP280;69206;51.420;5.400;2023-04-15T07:59:00;101138.41;;;15.90
79714;BMP280;69206;51.420;5.400;2023-04-15T08:01:29;101135.34;;;16.33
79714;BMP280;69206;51.420;5.400;2023-04-15T08:03:54;101131.03;;;16.24
79714;BMP280;69206;51.420;5.400;2023-04-15T08:06:21;101142.25;;;16.80
79714;BMP280;69206;51.420;5.400;2023-04-15T08:08:46;101153.78;;;16.57
79714;BMP280;69206;51.420;5.400;2023-04-15T08:11:12;101151.75;;;16.59
79714;BMP280;69206;51.420;5.400;2023-04-15T08:13:38;101140.03;;;16.92
79714;BMP280;69206;51.420;5.400;2023-04-15T08:18:46;101145.78;;;17.99
79714;BMP280;69206;51.420;5.400;2023-04-15T08:21:12;101151.09;;;18.28
79714;BMP280;69206;51.420;5.400;2023-04-15T08:23:37;101120.09;;;18.50
79714;BMP280;69206;51.420;5.400;2023-04-15T08:26:03;101155.66;;;19.68
79714;BMP280;69206;51.420;5.400;2023-04-15T08:28:28;101153.56;;;18.94
79714;BMP280;69206;51.420;5.400;2023-04-15T08:30:54;101169.50;;;19.36
79714;BMP280;69206;51.420;5.400;2023-04-15T08:33:20;101159.50;;;19.17
79714;BMP280;69206;51.420;5.400;2023-04-15T08:35:45;101165.56;;;19.53
79714;BMP280;69206;51.420;5.400;2023-04-15T08:38:11;101171.66;;;19.05
79714;BMP280;69206;51.420;5.400;2023-04-15T08:40:44;101136.78;;;19.15
79714;BMP280;69206;51.420;5.400;2023-04-15T08:43:14;101187.16;;;19.58
79714;BMP280;69206;51.420;5.400;2023-04-15T08:45:40;101174.31;;;19.68
79714;BMP280;69206;51.420;5.400;2023-04-15T08:48:06;101173.63;;;19.87
79714;BMP280;69206;51.420;5.400;2023-04-15T08:50:34;101181.47;;;20.29
79714;BMP280;69206;51.420;5.400;2023-04-15T08:53:00;101179.63;;;20.36
79714;BMP280;69206;51.420;5.400;2023-04-15T08:55:28;101196.56;;;20.49
79714;BMP280;69206;51.420;5.400;2023-04-15T08:57:54;101186.09;;;21.46
79714;BMP280;69206;51.420;5.400;2023-04-15T09:00:20;101195.53;;;21.49
79714;BMP280;69206;51.420;5.400;2023-04-15T09:02:47;101210.31;;;21.25
79714;BMP280;69206;51.420;5.400;2023-04-15T09:05:12;101201.28;;;21.33
79714;BMP280;69206;51.420;5.400;2023-04-15T09:07:38;101206.63;;;21.52
79714;BMP280;69206;51.420;5.400;2023-04-15T09:10:03;101207.31;;;22.24
79714;BMP280;69206;51.420;5.400;2023-04-15T09:12:29;101189.94;;;22.46
79714;BMP280;69206;51.420;5.400;2023-04-15T09:14:56;101221.63;;;22.49
79714;BMP280;69206;51.420;5.400;2023-04-15T09:17:21;101206.81;;;22.47
79714;BMP280;69206;51.420;5.400;2023-04-15T09:19:49;101229.19;;;22.65
79714;BMP280;69206;51.420;5.400;2023-04-15T09:22:21;101227.50;;;22.27
79714;BMP280;69206;51.420;5.400;2023-04-15T09:24:47;101240.88;;;21.10
79714;BMP280;69206;51.420;5.400;2023-04-15T09:27:15;101242.09;;;20.54
79714;BMP280;69206;51.420;5.400;2023-04-15T09:29:40;101214.00;;;19.63
79714;BMP280;69206;51.420;5.400;2023-04-15T09:32:13;101266.13;;;18.66
79714;BMP280;69206;51.420;5.400;2023-04-15T09:34:39;101267.94;;;18.94
79714;BMP280;69206;51.420;5.400;2023-04-15T09:37:05;101269.03;;;19.56
79714;BMP280;69206;51.420;5.400;2023-04-15T09:39:51;101275.22;;;20.39
79714;BMP280;69206;51.420;5.400;2023-04-15T09:42:17;101260.19;;;20.59
79714;BMP280;69206;51.420;5.400;2023-04-15T09:44:48;101247.97;;;20.37
79714;BMP280;69206;51.420;5.400;2023-04-15T09:47:30;101268.44;;;20.30
79714;BMP280;69206;51.420;5.400;2023-04-15T09:50:00;101282.09;;;20.20
79714;BMP280;69206;51.420;5.400;2023-04-15T09:52:25;101253.69;;;20.81
79714;BMP280;69206;51.420;5.400;2023-04-15T09:54:55;101275.22;;;20.32
79714;BMP280;69206;51.420;5.400;2023-04-15T09:57:21;101277.72;;;21.53
79714;BMP280;69206;51.420;5.400;2023-04-15T09:59:47;101273.00;;;22.07
79714;BMP280;69206;51.420;5.400;2023-04-15T10:02:13;101254.44;;;22.25
79714;BMP280;69206;51.420;5.400;2023-04-15T10:04:39;101260.72;;;22.50
79714;BMP280;69206;51.420;5.400;2023-04-15T10:07:07;101272.25;;;22.50
79714;BMP280;69206;51.420;5.400;2023-04-15T10:09:35;101246.41;;;22.12
79714;BMP280;69206;51.420;5.400;2023-04-15T10:12:02;101275.28;;;21.91
79714;BMP280;69206;51.420;5.400;2023-04-15T10:14:32;101285.91;;;22.17
79714;BMP280;69206;51.420;5.400;2023-04-15T10:17:01;101293.78;;;21.92
79714;BMP280;69206;51.420;5.400;2023-04-15T10:19:30;101283.66;;;20.76
79714;BMP280;69206;51.420;5.400;2023-04-15T10:21:58;101271.63;;;20.53
79714;BMP280;69206;51.420;5.400;2023-04-15T10:24:24;101272.69;;;20.24
79714;BMP280;69206;51.420;5.400;2023-04-15T10:26:50;101292.72;;;20.82
79714;BMP280;69206;51.420;5.400;2023-04-15T10:29:17;101296.97;;;21.16
79714;BMP280;69206;51.420;5.400;2023-04-15T10:31:42;101299.22;;;21.19
79714;BMP280;69206;51.420;5.400;2023-04-15T10:34:09;101303.16;;;20.77
79714;BMP280;69206;51.420;5.400;2023-04-15T10:36:35;101304.72;;;21.05
79714;BMP280;69206;51.420;5.400;2023-04-15T10:39:00;101312.31;;;21.08
79714;BMP280;69206;51.420;5.400;2023-04-15T10:41:27;101298.59;;;21.24
79714;BMP280;69206;51.420;5.400;2023-04-15T10:44:02;101314.28;;;21.33
79714;BMP280;69206;51.420;5.400;2023-04-15T10:46:42;101303.03;;;20.98
79714;BMP280;69206;51.420;5.400;2023-04-15T10:49:13;101300.78;;;20.95
79714;BMP280;69206;51.420;5.400;2023-04-15T10:51:44;101313.50;;;21.59
79714;BMP280;69206;51.420;5.400;2023-04-15T10:54:15;101299.38;;;21.11
79714;BMP280;69206;51.420;5.400;2023-04-15T10:56:43;101314.91;;;21.48
79714;BMP280;69206;51.420;5.400;2023-04-15T10:59:09;101310.22;;;21.76
79714;BMP280;69206;51.420;5.400;2023-04-15T11:01:54;101310.09;;;22.60
79714;BMP280;69206;51.420;5.400;2023-04-15T11:10:02;101333.78;;;20.47
79714;BMP280;69206;51.420;5.400;2023-04-15T11:12:35;101337.81;;;20.77
79714;BMP280;69206;51.420;5.400;2023-04-15T11:15:32;101320.75;;;21.11
79714;BMP280;69206;51.420;5.400;2023-04-15T11:18:15;101306.94;;;21.61
79714;BMP280;69206;51.420;5.400;2023-04-15T11:20:45;101323.81;;;21.81
79714;BMP280;69206;51.420;5.400;2023-04-15T11:23:14;101297.72;;;22.66
79714;BMP280;69206;51.420;5.400;2023-04-15T11:25:40;101326.59;;;22.38
79714;BMP280;69206;51.420;5.400;2023-04-15T11:28:06;101336.31;;;22.96
79714;BMP280;69206;51.420;5.400;2023-04-15T11:30:35;101323.56;;;22.15
79714;BMP280;69206;51.420;5.400;2023-04-15T11:33:06;101333.91;;;22.75
79714;BMP280;69206;51.420;5.400;2023-04-15T11:35:33;101321.69;;;22.35
79714;BMP280;69206;51.420;5.400;2023-04-15T11:38:12;101322.97;;;23.27
79714;BMP280;69206;51.420;5.400;2023-04-15T11:40:39;101324.34;;;23.36
79714;BMP280;69206;51.420;5.400;2023-04-15T11:45:34;101341.03;;;23.62
79714;BMP280;69206;51.420;5.400;2023-04-15T11:48:07;101355.47;;;23.37
79714;BMP280;69206;51.420;5.400;2023-04-15T11:50:33;101352.19;;;23.35
79714;BMP280;69206;51.420;5.400;2023-04-15T11:53:04;101353.78;;;22.48
79714;BMP280;69206;51.420;5.400;2023-04-15T11:55:30;101353.16;;;22.40
79714;BMP280;69206;51.420;5.400;2023-04-15T12:00:34;101367.78;;;22.37
79714;BMP280;69206;51.420;5.400;2023-04-15T12:09:01;101386.50;;;20.51
79714;BMP280;69206;51.420;5.400;2023-04-15T12:14:02;101377.66;;;21.78
79714;BMP280;69206;51.420;5.400;2023-04-15T12:16:28;101360.25;;;21.35
79714;BMP280;69206;51.420;5.400;2023-04-15T12:18:56;101396.97;;;21.20
79714;BMP280;69206;51.420;5.400;2023-04-15T12:21:22;101378.88;;;21.16
79714;BMP280;69206;51.420;5.400;2023-04-15T12:23:50;101394.63;;;21.04
79714;BMP280;69206;51.420;5.400;2023-04-15T12:26:16;101399.75;;;20.17
79714;BMP280;69206;51.420;5.400;2023-04-15T12:28:43;101404.47;;;20.43
79714;BMP280;69206;51.420;5.400;2023-04-15T12:31:09;101410.59;;;20.58
79714;BMP280;69206;51.420;5.400;2023-04-15T12:33:36;101402.69;;;20.50
79714;BMP280;69206;51.420;5.400;2023-04-15T12:36:05;101399.09;;;20.91
79714;BMP280;69206;51.420;5.400;2023-04-15T12:38:31;101409.56;;;21.26
79714;BMP280;69206;51.420;5.400;2023-04-15T12:40:57;101411.19;;;21.21
79714;BMP280;69206;51.420;5.400;2023-04-15T12:43:22;101408.78;;;21.52
79714;BMP280;69206;51.420;5.400;2023-04-15T12:45:48;101415.59;;;21.01
79714;BMP280;69206;51.420;5.400;2023-04-15T12:48:13;101410.31;;;19.83
79714;BMP280;69206;51.420;5.400;2023-04-15T12:50:39;101434.88;;;20.21
79714;BMP280;69206;51.420;5.400;2023-04-15T12:53:04;101426.66;;;20.98
79714;BMP280;69206;51.420;5.400;2023-04-15T12:55:29;101446.84;;;20.31
79714;BMP280;69206;51.420;5.400;2023-04-15T12:57:56;101444.53;;;19.51
79714;BMP280;69206;51.420;5.400;2023-04-15T13:00:21;101442.13;;;20.54
79714;BMP280;69206;51.420;5.400;2023-04-15T13:02:47;101446.91;;;20.59
79714;BMP280;69206;51.420;5.400;2023-04-15T13:05:13;101443.63;;;21.24
79714;BMP280;69206;51.420;5.400;2023-04-15T13:07:42;101444.44;;;20.64
79714;BMP280;69206;51.420;5.400;2023-04-15T13:10:08;101449.84;;;22.43
79714;BMP280;69206;51.420;5.400;2023-04-15T13:12:33;101445.94;;;22.39
79714;BMP280;69206;51.420;5.400;2023-04-15T13:15:01;101458.28;;;22.66
79714;BMP280;69206;51.420;5.400;2023-04-15T13:17:28;101462.72;;;21.68
79714;BMP280;69206;51.420;5.400;2023-04-15T13:19:53;101464.25;;;20.76
79714;BMP280;69206;51.420;5.400;2023-04-15T13:22:50;101462.97;;;21.80
79714;BMP280;69206;51.420;5.400;2023-04-15T13:25:16;101457.03;;;22.68
79714;BMP280;69206;51.420;5.400;2023-04-15T13:27:41;101473.06;;;21.03
79714;BMP280;69206;51.420;5.400;2023-04-15T13:30:07;101437.13;;;21.40
79714;BMP280;69206;51.420;5.400;2023-04-15T13:32:33;101462.50;;;20.62
79714;BMP280;69206;51.420;5.400;2023-04-15T13:34:58;101454.66;;;19.41
79714;BMP280;69206;51.420;5.400;2023-04-15T13:37:28;101471.06;;;20.09
79714;BMP280;69206;51.420;5.400;2023-04-15T13:39:54;101477.41;;;19.58
79714;BMP280;69206;51.420;5.400;2023-04-15T13:42:21;101486.66;;;19.47
79714;BMP280;69206;51.420;5.400;2023-04-15T13:44:46;101488.56;;;19.68
79714;BMP280;69206;51.420;5.400;2023-04-15T13:47:11;101493.47;;;18.84
79714;BMP280;69206;51.420;5.400;2023-04-15T13:49:39;101473.03;;;18.85
79714;BMP280;69206;51.420;5.400;2023-04-15T13:52:04;101482.50;;;19.74
79714;BMP280;69206;51.420;5.400;2023-04-15T13:54:30;101487.38;;;19.56
79714;BMP280;69206;51.420;5.400;2023-04-15T13:56:55;101509.50;;;19.13
79714;BMP280;69206;51.420;5.400;2023-04-15T13:59:22;101495.84;;;18.79
79714;BMP280;69206;51.420;5.400;2023-04-15T14:01:47;101498.53;;;17.57
79714;BMP280;69206;51.420;5.400;2023-04-15T14:04:13;101513.00;;;18.54
79714;BMP280;69206;51.420;5.400;2023-04-15T14:06:38;101512.09;;;19.79
79714;BMP280;69206;51.420;5.400;2023-04-15T14:09:04;101508.75;;;19.77
79714;BMP280;69206;51.420;5.400;2023-04-15T14:11:30;101517.47;;;18.31
79714;BMP280;69206;51.420;5.400;2023-04-15T14:13:55;101533.47;;;19.13
79714;BMP280;69206;51.420;5.400;2023-04-15T14:16:21;101516.34;;;19.59
79714;BMP280;69206;51.420;5.400;2023-04-15T14:18:46;101522.75;;;18.99
79714;BMP280;69206;51.420;5.400;2023-04-15T14:21:12;101505.66;;;18.56